sensor_id;sensor_type;location;lat;lon;timestamp;pressure;altitude;pressure_sealevel;temperature;humidity
10167;BME280;62970;53.130;8.244;2024-03-22T00:01:50;101984.84;;;9.06;62.15
10167;BME280;62970;53.130;8.244;2024-03-22T00:04:17;101985.69;;;9.08;62.26
10167;BME280;62970;53.130;8.244;2024-03-22T00:06:46;101988.31;;;9.08;62.10
10167;BME280;62970;53.130;8.244;2024-03-22T00:09:13;101982.22;;;9.09;62.35
10167;BME280;62970;53.130;8.244;2024-03-22T00:11:41;101981.38;;;9.10;61.82
10167;BME280;62970;53.130;8.244;2024-03-22T00:14:11;101972.69;;;9.09;61.88
10167;BME280;62970;53.130;8.244;2024-03-22T00:16:38;101976.16;;;9.10;61.76
10167;BME280;62970;53.130;8.244;2024-03-22T00:19:05;101971.81;;;9.10;61.76
10167;BME280;62970;53.130;8.244;2024-03-22T00:21:31;101964.88;;;9.09;61.80
10167;BME280;62970;53.130;8.244;2024-03-22T00:23:58;101962.28;;;9.11;62.21
10167;BME280;62970;53.130;8.244;2024-03-22T00:26:25;101952.75;;;9.11;62.22
10167;BME280;62970;53.130;8.244;2024-03-22T00:28:51;101951.88;;;9.11;61.98
10167;BME280;62970;53.130;8.244;2024-03-22T00:31:20;101954.47;;;9.12;62.20
10167;BME280;62970;53.130;8.244;2024-03-22T00:33:47;101946.69;;;9.12;62.20
10167;BME280;62970;53.130;8.244;2024-03-22T00:36:13;101950.16;;;9.13;61.91
10167;BME280;62970;53.130;8.244;2024-03-22T00:38:40;101944.94;;;9.13;62.38
10167;BME280;62970;53.130;8.244;2024-03-22T00:41:06;101940.59;;;9.13;62.08
10167;BME280;62970;53.130;8.244;2024-03-22T00:43:32;101935.41;;;9.13;62.06
10167;BME280;62970;53.130;8.244;2024-03-22T00:45:59;101929.34;;;9.13;62.39
10167;BME280;62970;53.130;8.244;2024-03-22T00:48:28;101933.66;;;9.12;62.16
10167;BME280;62970;53.130;8.244;2024-03-22T00:50:54;101926.72;;;9.13;62.34
10167;BME280;62970;53.130;8.244;2024-03-22T00:53:21;101920.66;;;9.14;61.98
10167;BME280;62970;53.130;8.244;2024-03-22T00:55:47;101907.66;;;9.14;62.02
10167;BME280;62970;53.130;8.244;2024-03-22T00:58:14;101913.72;;;9.14;62.60
10167;BME280;62970;53.130;8.244;2024-03-22T01:00:40;101903.31;;;9.16;62.61
10167;BME280;62970;53.130;8.244;2024-03-22T01:03:06;101906.78;;;9.15;62.20
10167;BME280;62970;53.130;8.244;2024-03-22T01:05:35;101903.31;;;9.14;62.46
10167;BME280;62970;53.130;8.244;2024-03-22T01:08:02;101901.56;;;9.15;62.20
10167;BME280;62970;53.130;8.244;2024-03-22T01:10:29;101892.03;;;9.15;62.55
10167;BME280;62970;53.130;8.244;2024-03-22T01:12:55;101885.09;;;9.16;62.31
10167;BME280;62970;53.130;8.244;2024-03-22T01:15:22;101885.97;;;9.16;62.23
10167;BME280;62970;53.130;8.244;2024-03-22T01:17:48;101876.41;;;9.14;62.22
10167;BME280;62970;53.130;8.244;2024-03-22T01:20:15;101873.81;;;9.12;62.72
10167;BME280;62970;53.130;8.244;2024-03-22T01:22:44;101867.75;;;9.10;62.60
10167;BME280;62970;53.130;8.244;2024-03-22T01:25:10;101853.00;;;9.09;62.82
10167;BME280;62970;53.130;8.244;2024-03-22T01:27:37;101845.19;;;9.08;62.53
10167;BME280;62970;53.130;8.244;2024-03-22T01:30:05;101833.94;;;9.07;62.82
10167;BME280;62970;53.130;8.244;2024-03-22T01:32:32;101827.00;;;9.05;62.81
10167;BME280;62970;53.130;8.244;2024-03-22T01:34:58;101812.25;;;9.04;62.94
10167;BME280;62970;53.130;8.244;2024-03-22T01:37:25;101817.44;;;9.02;62.96
10167;BME280;62970;53.130;8.244;2024-03-22T01:39:54;101815.72;;;9.01;62.65
10167;BME280;62970;53.130;8.244;2024-03-22T01:42:20;101820.91;;;9.01;63.03
10167;BME280;62970;53.130;8.244;2024-03-22T01:44:48;101822.66;;;9.01;62.91
10167;BME280;62970;53.130;8.244;2024-03-22T01:47:16;101826.13;;;9.03;62.76
10167;BME280;62970;53.130;8.244;2024-03-22T01:49:42;101818.31;;;9.03;63.24
10167;BME280;62970;53.130;8.244;2024-03-22T01:52:09;101814.84;;;9.04;63.23
10167;BME280;62970;53.130;8.244;2024-03-22T01:54:35;101817.44;;;9.05;63.34
10167;BME280;62970;53.130;8.244;2024-03-22T01:57:05;101807.03;;;9.05;63.16
10167;BME280;62970;53.130;8.244;2024-03-22T01:59:33;101813.97;;;9.06;63.43
10167;BME280;62970;53.130;8.244;2024-03-22T02:01:59;101807.03;;;9.08;63.46
10167;BME280;62970;53.130;8.244;2024-03-22T02:04:26;101802.69;;;9.09;63.38
10167;BME280;62970;53.130;8.244;2024-03-22T02:06:52;101795.75;;;9.09;63.35
10167;BME280;62970;53.130;8.244;2024-03-22T02:09:19;101780.16;;;9.11;63.16
10167;BME280;62970;53.130;8.244;2024-03-22T02:11:47;101781.88;;;9.12;63.22
10167;BME280;62970;53.130;8.244;2024-03-22T02:14:17;101781.88;;;9.12;63.29
10167;BME280;62970;53.130;8.244;2024-03-22T02:16:43;101787.09;;;9.13;63.56
10167;BME280;62970;53.130;8.244;2024-03-22T02:19:10;101781.88;;;9.13;63.64
10167;BME280;62970;53.130;8.244;2024-03-22T02:21:36;101773.22;;;9.14;63.60
10167;BME280;62970;53.130;8.244;2024-03-22T02:24:06;101766.25;;;9.15;63.41
10167;BME280;62970;53.130;8.244;2024-03-22T02:26:32;101760.19;;;9.16;63.71
10167;BME280;62970;53.130;8.244;2024-03-22T02:28:58;101755.84;;;9.16;63.81
10167;BME280;62970;53.130;8.244;2024-03-22T02:31:25;101737.63;;;9.16;63.72
10167;BME280;62970;53.130;8.244;2024-03-22T02:33:51;101742.84;;;9.16;63.68
10167;BME280;62970;53.130;8.244;2024-03-22T02:36:18;101744.56;;;9.17;63.90
10167;BME280;62970;53.130;8.244;2024-03-22T02:38:44;101728.09;;;9.17;63.78
10167;BME280;62970;53.130;8.244;2024-03-22T02:41:13;101738.50;;;9.18;63.88
10167;BME280;62970;53.130;8.244;2024-03-22T02:43:40;101729.81;;;9.18;64.14
10167;BME280;62970;53.130;8.244;2024-03-22T02:46:06;101721.16;;;9.20;64.08
10167;BME280;62970;53.130;8.244;2024-03-22T02:48:32;101715.06;;;9.21;63.66
10167;BME280;62970;53.130;8.244;2024-03-22T02:50:59;101722.88;;;9.21;63.90
10167;BME280;62970;53.130;8.244;2024-03-22T02:53:25;101708.13;;;9.22;64.00
10167;BME280;62970;53.130;8.244;2024-03-22T02:55:52;101704.66;;;9.23;64.02
10167;BME280;62970;53.130;8.244;2024-03-22T02:58:21;101695.09;;;9.23;64.04
10167;BME280;62970;53.130;8.244;2024-03-22T03:00:48;101691.63;;;9.24;64.03
10167;BME280;62970;53.130;8.244;2024-03-22T03:03:14;101679.50;;;9.23;64.40
10167;BME280;62970;53.130;8.244;2024-03-22T03:05:42;101687.31;;;9.23;64.09
10167;BME280;62970;53.130;8.244;2024-03-22T03:08:08;101688.16;;;9.24;64.24
10167;BME280;62970;53.130;8.244;2024-03-22T03:10:35;101684.69;;;9.25;64.22
10167;BME280;62970;53.130;8.244;2024-03-22T03:13:01;101685.56;;;9.26;64.52
10167;BME280;62970;53.130;8.244;2024-03-22T03:15:31;101686.44;;;9.26;64.41
10167;BME280;62970;53.130;8.244;2024-03-22T03:17:57;101680.34;;;9.26;64.57
10167;BME280;62970;53.130;8.244;2024-03-22T03:20:24;101674.28;;;9.27;64.20
10167;BME280;62970;53.130;8.244;2024-03-22T03:22:51;101669.06;;;9.28;64.62
10167;BME280;62970;53.130;8.244;2024-03-22T03:25:17;101669.94;;;9.29;64.60
10167;BME280;62970;53.130;8.244;2024-03-22T03:27:44;101662.13;;;9.30;64.44
10167;BME280;62970;53.130;8.244;2024-03-22T03:30:11;101671.66;;;9.31;64.79
10167;BME280;62970;53.130;8.244;2024-03-22T03:32:40;101662.13;;;9.32;64.47
10167;BME280;62970;53.130;8.244;2024-03-22T03:35:07;101649.09;;;9.32;64.91
10167;BME280;62970;53.130;8.244;2024-03-22T03:37:34;101646.50;;;9.33;64.49
10167;BME280;62970;53.130;8.244;2024-03-22T03:40:01;101645.63;;;9.33;64.65
10167;BME280;62970;53.130;8.244;2024-03-22T03:42:27;101644.75;;;9.34;64.99
10167;BME280;62970;53.130;8.244;2024-03-22T03:44:54;101636.06;;;9.35;64.70
10167;BME280;62970;53.130;8.244;2024-03-22T03:47:20;101633.47;;;9.36;64.89
10167;BME280;62970;53.130;8.244;2024-03-22T03:49:49;101630.88;;;9.35;64.68
10167;BME280;62970;53.130;8.244;2024-03-22T03:52:16;101616.97;;;9.37;65.21
10167;BME280;62970;53.130;8.244;2024-03-22T03:54:42;101618.69;;;9.38;64.80
10167;BME280;62970;53.130;8.244;2024-03-22T03:57:09;101612.63;;;9.38;64.94
10167;BME280;62970;53.130;8.244;2024-03-22T03:59:35;101612.63;;;9.39;64.91
10167;BME280;62970;53.130;8.244;2024-03-22T04:02:02;101604.81;;;9.41;65.16
10167;BME280;62970;53.130;8.244;2024-03-22T04:04:28;101602.19;;;9.41;65.22
10167;BME280;62970;53.130;8.244;2024-03-22T04:06:57;101606.53;;;9.42;65.40
10167;BME280;62970;53.130;8.244;2024-03-22T04:09:24;101595.25;;;9.43;65.34
10167;BME280;62970;53.130;8.244;2024-03-22T04:11:50;101599.59;;;9.44;65.17
10167;BME280;62970;53.130;8.244;2024-03-22T04:14:17;101596.13;;;9.43;65.26
10167;BME280;62970;53.130;8.244;2024-03-22T04:16:43;101597.84;;;9.46;65.09
10167;BME280;62970;53.130;8.244;2024-03-22T04:19:10;101593.50;;;9.45;65.34
10167;BME280;62970;53.130;8.244;2024-03-22T04:21:36;101594.38;;;9.45;65.33
10167;BME280;62970;53.130;8.244;2024-03-22T04:24:05;101595.22;;;9.46;65.29
10167;BME280;62970;53.130;8.244;2024-03-22T04:26:32;101596.09;;;9.46;65.85
10167;BME280;62970;53.130;8.244;2024-03-22T04:28:58;101593.47;;;9.48;65.37
10167;BME280;62970;53.130;8.244;2024-03-22T04:31:25;101600.41;;;9.49;65.93
10167;BME280;62970;53.130;8.244;2024-03-22T04:33:51;101603.03;;;9.49;66.01
10167;BME280;62970;53.130;8.244;2024-03-22T04:36:18;101598.66;;;9.51;65.71
10167;BME280;62970;53.130;8.244;2024-03-22T04:38:44;101602.13;;;9.53;65.94
10167;BME280;62970;53.130;8.244;2024-03-22T04:41:13;101598.66;;;9.52;66.01
10167;BME280;62970;53.130;8.244;2024-03-22T04:43:39;101593.44;;;9.54;65.59
10167;BME280;62970;53.130;8.244;2024-03-22T04:46:06;101586.50;;;9.54;66.10
10167;BME280;62970;53.130;8.244;2024-03-22T04:48:32;101586.47;;;9.56;65.93
10167;BME280;62970;53.130;8.244;2024-03-22T04:50:59;101576.94;;;9.56;65.61
10167;BME280;62970;53.130;8.244;2024-03-22T04:53:25;101570.88;;;9.56;65.71
10167;BME280;62970;53.130;8.244;2024-03-22T04:55:52;101575.19;;;9.57;65.75
10167;BME280;62970;53.130;8.244;2024-03-22T04:58:22;101573.47;;;9.57;66.23
10167;BME280;62970;53.130;8.244;2024-03-22T05:00:49;101574.31;;;9.58;65.90
10167;BME280;62970;53.130;8.244;2024-03-22T05:03:21;101577.78;;;9.59;66.01
10167;BME280;62970;53.130;8.244;2024-03-22T05:05:49;101579.53;;;9.58;66.06
10167;BME280;62970;53.130;8.244;2024-03-22T05:08:16;101571.72;;;9.58;66.06
10167;BME280;62970;53.130;8.244;2024-03-22T05:10:42;101582.13;;;9.58;66.30
10167;BME280;62970;53.130;8.244;2024-03-22T05:13:08;101572.59;;;9.59;66.49
10167;BME280;62970;53.130;8.244;2024-03-22T05:15:37;101571.72;;;9.60;66.33
10167;BME280;62970;53.130;8.244;2024-03-22T05:18:05;101557.81;;;9.59;66.39
10167;BME280;62970;53.130;8.244;2024-03-22T05:20:31;101553.47;;;9.60;66.54
10167;BME280;62970;53.130;8.244;2024-03-22T05:22:58;101556.09;;;9.60;66.62
10167;BME280;62970;53.130;8.244;2024-03-22T05:25:25;101556.94;;;9.60;66.49
10167;BME280;62970;53.130;8.244;2024-03-22T05:27:51;101553.47;;;9.61;66.36
10167;BME280;62970;53.130;8.244;2024-03-22T05:30:18;101554.34;;;9.60;66.79
10167;BME280;62970;53.130;8.244;2024-03-22T05:32:47;101550.88;;;9.60;66.51
10167;BME280;62970;53.130;8.244;2024-03-22T05:35:14;101546.53;;;9.60;66.49
10167;BME280;62970;53.130;8.244;2024-03-22T05:37:40;101545.66;;;9.61;66.37
10167;BME280;62970;53.130;8.244;2024-03-22T05:40:09;101545.66;;;9.61;66.52
10167;BME280;62970;53.130;8.244;2024-03-22T05:42:36;101529.16;;;9.62;66.94
10167;BME280;62970;53.130;8.244;2024-03-22T05:45:03;101528.28;;;9.63;66.99
10167;BME280;62970;53.130;8.244;2024-03-22T05:47:31;101522.19;;;9.64;67.02
10167;BME280;62970;53.130;8.244;2024-03-22T05:52:27;101513.50;;;9.65;66.51
10167;BME280;62970;53.130;8.244;2024-03-22T05:54:54;101521.31;;;9.67;66.71
10167;BME280;62970;53.130;8.244;2024-03-22T05:57:20;101522.16;;;9.69;67.14
10167;BME280;62970;53.130;8.244;2024-03-22T05:59:47;101514.34;;;9.70;67.07
10167;BME280;62970;53.130;8.244;2024-03-22T06:02:13;101513.47;;;9.71;67.16
10167;BME280;62970;53.130;8.244;2024-03-22T06:04:39;101512.56;;;9.74;67.03
10167;BME280;62970;53.130;8.244;2024-03-22T06:07:08;101514.28;;;9.75;66.77
10167;BME280;62970;53.130;8.244;2024-03-22T06:09:35;101500.38;;;9.77;67.26
10167;BME280;62970;53.130;8.244;2024-03-22T06:12:04;101508.19;;;9.79;67.16
10167;BME280;62970;53.130;8.244;2024-03-22T06:14:31;101495.16;;;9.80;67.32
10167;BME280;62970;53.130;8.244;2024-03-22T06:16:59;101502.09;;;9.80;67.45
10167;BME280;62970;53.130;8.244;2024-03-22T06:19:26;101503.81;;;9.82;67.25
10167;BME280;62970;53.130;8.244;2024-03-22T06:21:52;101502.94;;;9.83;67.41
10167;BME280;62970;53.130;8.244;2024-03-22T06:24:21;101502.06;;;9.84;67.26
10167;BME280;62970;53.130;8.244;2024-03-22T06:26:48;101489.03;;;9.86;67.56
10167;BME280;62970;53.130;8.244;2024-03-22T06:29:15;101503.78;;;9.87;67.51
10167;BME280;62970;53.130;8.244;2024-03-22T06:31:42;101500.28;;;9.89;67.70
10167;BME280;62970;53.130;8.244;2024-03-22T06:34:09;101496.78;;;9.91;67.76
10167;BME280;62970;53.130;8.244;2024-03-22T06:36:35;101501.97;;;9.94;67.84
10167;BME280;62970;53.130;8.244;2024-03-22T06:39:02;101506.28;;;9.98;67.57
10167;BME280;62970;53.130;8.244;2024-03-22T06:41:32;101508.88;;;9.99;67.73
10167;BME280;62970;53.130;8.244;2024-03-22T06:43:58;101501.06;;;10.02;67.45
10167;BME280;62970;53.130;8.244;2024-03-22T06:46:25;101499.28;;;10.04;67.81
10167;BME280;62970;53.130;8.244;2024-03-22T06:48:52;101496.69;;;10.06;67.82
10167;BME280;62970;53.130;8.244;2024-03-22T06:51:18;101485.38;;;10.07;67.81
10167;BME280;62970;53.130;8.244;2024-03-22T06:53:44;101470.59;;;10.07;67.46
10167;BME280;62970;53.130;8.244;2024-03-22T06:56:11;101463.66;;;10.06;68.04
10167;BME280;62970;53.130;8.244;2024-03-22T06:58:40;101466.31;;;10.03;68.05
10167;BME280;62970;53.130;8.244;2024-03-22T07:01:07;101471.53;;;10.02;67.94
10167;BME280;62970;53.130;8.244;2024-03-22T07:03:33;101475.00;;;10.01;68.04
10167;BME280;62970;53.130;8.244;2024-03-22T07:06:00;101468.94;;;10.00;68.46
10167;BME280;62970;53.130;8.244;2024-03-22T07:08:26;101476.72;;;10.03;68.47
10167;BME280;62970;53.130;8.244;2024-03-22T07:10:54;101475.00;;;10.02;68.39
10167;BME280;62970;53.130;8.244;2024-03-22T07:13:20;101468.03;;;10.03;68.29
10167;BME280;62970;53.130;8.244;2024-03-22T07:15:50;101481.06;;;10.03;68.59
10167;BME280;62970;53.130;8.244;2024-03-22T07:18:16;101472.38;;;10.05;68.90
10167;BME280;62970;53.130;8.244;2024-03-22T07:20:59;101467.16;;;10.05;68.61
10167;BME280;62970;53.130;8.244;2024-03-22T07:23:26;101467.97;;;10.09;68.66
10167;BME280;62970;53.130;8.244;2024-03-22T07:25:56;101461.00;;;10.12;69.23
10167;BME280;62970;53.130;8.244;2024-03-22T07:28:22;101467.94;;;10.16;68.98
10167;BME280;62970;53.130;8.244;2024-03-22T07:30:51;101467.06;;;10.17;68.67
10167;BME280;62970;53.130;8.244;2024-03-22T07:33:18;101465.31;;;10.18;69.00
10167;BME280;62970;53.130;8.244;2024-03-22T07:35:45;101474.00;;;10.17;68.66
10167;BME280;62970;53.130;8.244;2024-03-22T07:38:11;101468.78;;;10.15;69.05
10167;BME280;62970;53.130;8.244;2024-03-22T07:40:38;101468.78;;;10.14;69.05
10167;BME280;62970;53.130;8.244;2024-03-22T07:43:04;101465.31;;;10.13;68.82
10167;BME280;62970;53.130;8.244;2024-03-22T07:45:33;101468.78;;;10.14;69.09
10167;BME280;62970;53.130;8.244;2024-03-22T07:48:04;101463.59;;;10.14;69.33
10167;BME280;62970;53.130;8.244;2024-03-22T07:50:30;101461.84;;;10.17;69.30
10167;BME280;62970;53.130;8.244;2024-03-22T07:52:57;101454.03;;;10.17;69.56
10167;BME280;62970;53.130;8.244;2024-03-22T07:55:23;101460.06;;;10.19;69.11
10167;BME280;62970;53.130;8.244;2024-03-22T07:57:50;101460.94;;;10.20;69.39
10167;BME280;62970;53.130;8.244;2024-03-22T08:00:18;101452.22;;;10.23;69.08
10167;BME280;62970;53.130;8.244;2024-03-22T08:02:44;101444.41;;;10.23;69.04
10167;BME280;62970;53.130;8.244;2024-03-22T08:05:16;101441.81;;;10.23;69.20
10167;BME280;62970;53.130;8.244;2024-03-22T08:07:42;101434.84;;;10.23;69.14
10167;BME280;62970;53.130;8.244;2024-03-22T08:10:09;101440.03;;;10.26;69.27
10167;BME280;62970;53.130;8.244;2024-03-22T08:12:36;101444.34;;;10.27;69.56
10167;BME280;62970;53.130;8.244;2024-03-22T08:15:03;101447.81;;;10.28;69.42
10167;BME280;62970;53.130;8.244;2024-03-22T08:17:29;101450.41;;;10.31;69.06
10167;BME280;62970;53.130;8.244;2024-03-22T08:19:56;101447.78;;;10.32;69.25
10167;BME280;62970;53.130;8.244;2024-03-22T08:22:25;101445.19;;;10.31;68.94
10167;BME280;62970;53.130;8.244;2024-03-22T08:24:52;101446.03;;;10.33;69.23
10167;BME280;62970;53.130;8.244;2024-03-22T08:27:18;101444.31;;;10.32;68.92
10167;BME280;62970;53.130;8.244;2024-03-22T08:29:44;101451.22;;;10.34;68.89
10167;BME280;62970;53.130;8.244;2024-03-22T08:32:11;101450.31;;;10.37;68.88
10167;BME280;62970;53.130;8.244;2024-03-22T08:34:37;101450.31;;;10.38;68.73
10167;BME280;62970;53.130;8.244;2024-03-22T08:37:04;101445.94;;;10.40;68.82
10167;BME280;62970;53.130;8.244;2024-03-22T08:39:33;101448.53;;;10.42;68.98
10167;BME280;62970;53.130;8.244;2024-03-22T08:41:59;101436.31;;;10.44;68.80
10167;BME280;62970;53.130;8.244;2024-03-22T08:44:26;101432.84;;;10.45;68.69
10167;BME280;62970;53.130;8.244;2024-03-22T08:46:52;101435.44;;;10.46;68.85
10167;BME280;62970;53.130;8.244;2024-03-22T08:49:18;101429.34;;;10.47;68.51
10167;BME280;62970;53.130;8.244;2024-03-22T08:51:45;101429.31;;;10.49;68.75
10167;BME280;62970;53.130;8.244;2024-03-22T08:54:12;101438.88;;;10.48;68.91
10167;BME280;62970;53.130;8.244;2024-03-22T08:56:41;101435.44;;;10.46;68.53
10167;BME280;62970;53.130;8.244;2024-03-22T08:59:07;101432.84;;;10.45;68.25
10167;BME280;62970;53.130;8.244;2024-03-22T09:01:34;101431.13;;;10.42;68.20
10167;BME280;62970;53.130;8.244;2024-03-22T09:04:00;101429.41;;;10.41;68.60
10167;BME280;62970;53.130;8.244;2024-03-22T09:06:27;101432.94;;;10.37;68.40
10167;BME280;62970;53.130;8.244;2024-03-22T09:08:56;101432.94;;;10.36;68.23
10167;BME280;62970;53.130;8.244;2024-03-22T09:11:23;101430.38;;;10.34;68.19
10167;BME280;62970;53.130;8.244;2024-03-22T09:13:54;101436.47;;;10.32;68.71
10167;BME280;62970;53.130;8.244;2024-03-22T09:16:20;101433.88;;;10.30;68.40
10167;BME280;62970;53.130;8.244;2024-03-22T09:18:47;101429.53;;;10.31;68.44
10167;BME280;62970;53.130;8.244;2024-03-22T09:21:13;101425.22;;;10.30;68.72
10167;BME280;62970;53.130;8.244;2024-03-22T09:23:40;101426.06;;;10.30;68.81
10167;BME280;62970;53.130;8.244;2024-03-22T09:26:06;101421.72;;;10.31;68.78
10167;BME280;62970;53.130;8.244;2024-03-22T09:28:33;101413.03;;;10.32;68.56
10167;BME280;62970;53.130;8.244;2024-03-22T09:31:06;101424.28;;;10.34;68.91
10167;BME280;62970;53.130;8.244;2024-03-22T09:33:33;101417.34;;;10.33;68.88
10167;BME280;62970;53.130;8.244;2024-03-22T09:35:59;101426.91;;;10.34;68.80
10167;BME280;62970;53.130;8.244;2024-03-22T09:38:26;101425.16;;;10.34;69.41
10167;BME280;62970;53.130;8.244;2024-03-22T09:40:52;101431.22;;;10.35;68.89
10167;BME280;62970;53.130;8.244;2024-03-22T09:43:20;101418.19;;;10.36;69.02
10167;BME280;62970;53.130;8.244;2024-03-22T09:45:48;101419.03;;;10.38;69.09
10167;BME280;62970;53.130;8.244;2024-03-22T09:48:19;101422.50;;;10.39;69.38
10167;BME280;62970;53.130;8.244;2024-03-22T09:50:46;101413.75;;;10.41;69.49
10167;BME280;62970;53.130;8.244;2024-03-22T09:53:14;101419.81;;;10.43;69.35
10167;BME280;62970;53.130;8.244;2024-03-22T09:55:45;101419.81;;;10.43;69.73
10167;BME280;62970;53.130;8.244;2024-03-22T09:58:13;101419.81;;;10.43;69.23
10167;BME280;62970;53.130;8.244;2024-03-22T10:00:39;101416.34;;;10.44;69.37
10167;BME280;62970;53.130;8.244;2024-03-22T10:03:06;101419.84;;;10.42;69.73
10167;BME280;62970;53.130;8.244;2024-03-22T10:05:37;101417.28;;;10.39;69.29
10167;BME280;62970;53.130;8.244;2024-03-22T10:08:04;101412.94;;;10.38;69.87
10167;BME280;62970;53.130;8.244;2024-03-22T10:10:31;101418.19;;;10.36;70.01
10167;BME280;62970;53.130;8.244;2024-03-22T10:13:00;101413.00;;;10.33;70.01
10167;BME280;62970;53.130;8.244;2024-03-22T10:15:26;101421.69;;;10.34;69.50
10167;BME280;62970;53.130;8.244;2024-03-22T10:17:53;101405.22;;;10.30;69.54
10167;BME280;62970;53.130;8.244;2024-03-22T10:20:20;101417.38;;;10.30;69.74
10167;BME280;62970;53.130;8.244;2024-03-22T10:22:56;101413.91;;;10.31;70.34
10167;BME280;62970;53.130;8.244;2024-03-22T10:25:24;101414.75;;;10.33;70.04
10167;BME280;62970;53.130;8.244;2024-03-22T10:27:50;101410.34;;;10.36;70.27
10167;BME280;62970;53.130;8.244;2024-03-22T10:30:17;101413.75;;;10.41;70.06
10167;BME280;62970;53.130;8.244;2024-03-22T10:32:44;101419.81;;;10.45;70.13
10167;BME280;62970;53.130;8.244;2024-03-22T10:35:13;101411.97;;;10.46;70.59
10167;BME280;62970;53.130;8.244;2024-03-22T10:37:40;101411.06;;;10.47;70.46
10167;BME280;62970;53.130;8.244;2024-03-22T10:40:11;101412.81;;;10.48;70.50
10167;BME280;62970;53.130;8.244;2024-03-22T10:42:39;101409.34;;;10.48;70.52
10167;BME280;62970;53.130;8.244;2024-03-22T10:45:09;101418.84;;;10.50;70.78
10167;BME280;62970;53.130;8.244;2024-03-22T10:47:37;101410.16;;;10.51;70.38
10167;BME280;62970;53.130;8.244;2024-03-22T10:50:06;101404.91;;;10.53;70.31
10167;BME280;62970;53.130;8.244;2024-03-22T10:52:37;101411.00;;;10.54;70.10
10167;BME280;62970;53.130;8.244;2024-03-22T10:55:12;101411.03;;;10.52;70.14
10167;BME280;62970;53.130;8.244;2024-03-22T10:57:40;101406.69;;;10.51;70.46
10167;BME280;62970;53.130;8.244;2024-03-22T11:00:12;101404.09;;;10.49;70.35
10167;BME280;62970;53.130;8.244;2024-03-22T11:02:39;101411.03;;;10.50;70.78
10167;BME280;62970;53.130;8.244;2024-03-22T11:05:17;101411.91;;;10.51;70.38
10167;BME280;62970;53.130;8.244;2024-03-22T11:07:44;101393.63;;;10.52;70.80
10167;BME280;62970;53.130;8.244;2024-03-22T11:10:14;101395.34;;;10.54;70.59
10167;BME280;62970;53.130;8.244;2024-03-22T11:12:42;101394.47;;;10.55;70.58
10167;BME280;62970;53.130;8.244;2024-03-22T11:15:09;101390.13;;;10.54;70.85
10167;BME280;62970;53.130;8.244;2024-03-22T11:17:37;101391.88;;;10.53;70.85
10167;BME280;62970;53.130;8.244;2024-03-22T11:20:05;101389.28;;;10.51;70.72
10167;BME280;62970;53.130;8.244;2024-03-22T11:22:31;101384.09;;;10.51;70.95
10167;BME280;62970;53.130;8.244;2024-03-22T11:24:58;101382.34;;;10.50;70.90
10167;BME280;62970;53.130;8.244;2024-03-22T11:27:27;101383.22;;;10.51;70.88
10167;BME280;62970;53.130;8.244;2024-03-22T11:30:00;101377.09;;;10.54;71.06
10167;BME280;62970;53.130;8.244;2024-03-22T11:32:27;101376.16;;;10.59;71.12
10167;BME280;62970;53.130;8.244;2024-03-22T11:34:53;101370.88;;;10.64;71.17
10167;BME280;62970;53.130;8.244;2024-03-22T11:37:20;101369.91;;;10.71;71.00
10167;BME280;62970;53.130;8.244;2024-03-22T11:39:46;101369.81;;;10.75;71.21
10167;BME280;62970;53.130;8.244;2024-03-22T11:42:13;101361.09;;;10.78;71.10
10167;BME280;62970;53.130;8.244;2024-03-22T11:44:43;101366.25;;;10.81;70.89
10167;BME280;62970;53.130;8.244;2024-03-22T11:47:10;101355.81;;;10.82;71.31
10167;BME280;62970;53.130;8.244;2024-03-22T11:49:36;101354.88;;;10.87;71.36
10167;BME280;62970;53.130;8.244;2024-03-22T11:52:03;101359.19;;;10.89;71.43
10167;BME280;62970;53.130;8.244;2024-03-22T11:54:29;101359.97;;;10.94;70.78
10167;BME280;62970;53.130;8.244;2024-03-22T11:56:56;101350.38;;;10.96;70.80
10167;BME280;62970;53.130;8.244;2024-03-22T11:59:23;101358.16;;;10.99;70.96
10167;BME280;62970;53.130;8.244;2024-03-22T12:01:52;101354.69;;;10.97;70.69
10167;BME280;62970;53.130;8.244;2024-03-22T12:04:18;101345.09;;;10.99;71.22
10167;BME280;62970;53.130;8.244;2024-03-22T12:06:45;101348.56;;;11.01;71.31
10167;BME280;62970;53.130;8.244;2024-03-22T12:09:12;101346.72;;;11.06;70.97
10167;BME280;62970;53.130;8.244;2024-03-22T12:11:39;101337.91;;;11.13;71.07
10167;BME280;62970;53.130;8.244;2024-03-22T12:14:06;101348.19;;;11.23;70.97
10167;BME280;62970;53.130;8.244;2024-03-22T12:16:32;101341.91;;;11.33;71.23
10167;BME280;62970;53.130;8.244;2024-03-22T12:19:01;101341.78;;;11.42;71.07
10167;BME280;62970;53.130;8.244;2024-03-22T12:21:28;101350.28;;;11.53;71.15
10167;BME280;62970;53.130;8.244;2024-03-22T12:23:54;101352.69;;;11.64;70.79
10167;BME280;62970;53.130;8.244;2024-03-22T12:26:21;101350.84;;;11.70;70.99
10167;BME280;62970;53.130;8.244;2024-03-22T12:28:47;101344.63;;;11.76;70.68
10167;BME280;62970;53.130;8.244;2024-03-22T12:31:17;101347.16;;;11.80;70.26
10167;BME280;62970;53.130;8.244;2024-03-22T12:33:44;101337.53;;;11.83;70.20
10167;BME280;62970;53.130;8.244;2024-03-22T12:36:13;101331.41;;;11.84;70.17
10167;BME280;62970;53.130;8.244;2024-03-22T12:38:39;101340.09;;;11.86;70.12
10167;BME280;62970;53.130;8.244;2024-03-22T12:41:06;101331.47;;;11.80;69.58
10167;BME280;62970;53.130;8.244;2024-03-22T12:43:33;101330.69;;;11.75;70.16
10167;BME280;62970;53.130;8.244;2024-03-22T12:46:00;101332.56;;;11.69;69.94
10167;BME280;62970;53.130;8.244;2024-03-22T12:48:26;101324.81;;;11.64;69.76
10167;BME280;62970;53.130;8.244;2024-03-22T12:50:52;101328.44;;;11.57;69.79
10167;BME280;62970;53.130;8.244;2024-03-22T12:53:22;101329.47;;;11.48;70.22
10167;BME280;62970;53.130;8.244;2024-03-22T12:55:48;101324.38;;;11.41;69.99
10167;BME280;62970;53.130;8.244;2024-03-22T12:58:15;101325.31;;;11.37;70.30